Time;durP1;ratioP1;P1;durP2;ratioP2;P2;SDS_P1;SDS_P2;PMS_P1;PMS_P2;Temp;Humidity;BMP_temperature;BMP_pressure;BME280_temperature;BME280_humidity;BME280_pressure;Samples;Min_cycle;Max_cycle;Signal;HPM_P1;HPM_P2
2023/03/04 01:05:43;;;;;;;17.00;5.15;;;;;;;5.77;68.95;102019.69;6144361;22;1445213;-54
2023/03/04 01:08:11;;;;;;;28.63;14.05;;;;;;;5.80;68.30;102023.91;6274320;22;20081;-49
2023/03/04 01:10:38;;;;;;;18.73;5.43;;;;;;;5.56;69.07;102021.78;6275275;22;20221;-51
2023/03/04 01:13:04;;;;;;;108.53;50.15;;;;;;;5.46;69.02;102009.28;6248582;22;20438;-58
2023/03/04 01:15:31;;;;;;;19.50;5.47;;;;;;;5.57;68.86;102014.75;6274089;22;20019;-55
2023/03/04 01:17:58;;;;;;;17.50;4.60;;;;;;;5.39;69.21;102014.88;6274753;22;20431;-54
2023/03/04 01:20:24;;;;;;;20.88;4.75;;;;;;;5.40;70.26;102010.44;6264019;22;20028;-58
2023/03/04 01:22:51;;;;;;;18.40;4.50;;;;;;;5.36;70.59;102009.78;6274021;22;20346;-55
2023/03/04 01:25:18;;;;;;;16.95;4.88;;;;;;;5.27;71.35;102007.69;6269057;22;20462;-58
2023/03/04 01:27:45;;;;;;;15.38;4.60;;;;;;;5.45;70.81;102010.19;6275835;22;20020;-57
2023/03/04 01:30:12;;;;;;;27.70;8.90;;;;;;;5.36;70.67;102003.69;6275055;22;20073;-56
2023/03/04 01:32:38;;;;;;;20.98;5.07;;;;;;;5.36;70.54;102006.31;6275466;22;20020;-56
2023/03/04 01:35:05;;;;;;;25.65;4.80;;;;;;;5.38;70.75;102005.31;6274938;22;20431;-56
2023/03/04 01:37:32;;;;;;;28.52;6.57;;;;;;;5.36;70.60;102006.31;6275843;22;20086;-51
2023/03/04 01:39:59;;;;;;;35.22;11.45;;;;;;;5.36;71.67;101999.25;6268862;22;20167;-49
2023/03/04 01:42:29;;;;;;;110.75;28.67;;;;;;;5.44;71.44;101996.19;6274740;22;20115;-51
2023/03/04 01:44:56;;;;;;;38.22;11.35;;;;;;;5.47;71.82;101992.53;6274996;22;20020;-51
2023/03/04 01:47:27;;;;;;;50.65;17.40;;;;;;;5.61;71.50;101991.72;6275436;22;20020;-53
2023/03/04 01:49:56;;;;;;;;;;;;;;;5.79;70.50;101992.41;6275672;22;20016;-47
2023/03/04 01:52:24;;;;;;;30.77;9.70;;;;;;;5.94;69.76;101987.03;6274846;22;20281;-46
2023/03/04 01:54:52;;;;;;;24.77;5.93;;;;;;;6.06;69.45;101992.56;6267126;22;20085;-53
2023/03/04 01:57:22;;;;;;;23.00;5.00;;;;;;;6.10;68.97;101983.53;6275779;22;20373;-56
2023/03/04 02:00:16;;;;;;;21.80;4.90;;;;;;;6.17;68.53;101983.97;6274958;22;20058;-48
2023/03/04 02:02:45;;;;;;;25.70;4.40;;;;;;;6.17;68.17;101990.09;6275029;22;20069;-49
2023/03/04 02:05:13;;;;;;;21.42;4.70;;;;;;;6.01;68.72;101984.94;6271259;22;20028;-54
2023/03/04 02:07:40;;;;;;;21.00;4.00;;;;;;;5.88;68.81;101981.31;6273948;22;20342;-52
2023/03/04 02:10:10;;;;;;;20.60;5.47;;;;;;;5.96;69.23;101984.34;6248294;22;20039;-50
2023/03/04 02:12:38;;;;;;;25.83;4.63;;;;;;;6.02;69.00;101980.50;6274929;22;20015;-54
2023/03/04 02:15:05;;;;;;;33.17;5.30;;;;;;;6.10;68.08;101979.09;6274670;22;20011;-51
2023/03/04 02:17:32;;;;;;;48.92;18.80;;;;;;;6.15;67.56;101979.66;6274897;22;20023;-51
2023/03/04 02:20:29;;;;;;;40.92;13.98;;;;;;;6.17;67.76;101969.03;6247476;22;20077;-51
2023/03/04 02:23:07;;;;;;;23.73;6.60;;;;;;;6.06;68.05;101971.47;6247277;22;20042;-50
2023/03/04 02:25:53;;;;;;;17.52;5.18;;;;;;;6.07;68.05;101966.09;6249826;22;20073;-47
2023/03/04 02:28:20;;;;;;;21.45;5.13;;;;;;;6.06;68.26;101963.59;6273815;22;20026;-47
2023/03/04 02:30:47;;;;;;;33.22;4.53;;;;;;;6.06;69.11;101963.59;6274260;22;20081;-50
2023/03/04 02:33:17;;;;;;;141.65;48.08;;;;;;;6.19;68.16;101967.13;6272230;22;20030;-50
2023/03/04 02:35:45;;;;;;;30.23;9.40;;;;;;;6.38;66.65;101960.72;6268065;22;20012;-56
2023/03/04 02:38:12;;;;;;;164.70;54.95;;;;;;;6.28;66.93;101963.94;6273293;22;20409;-51
2023/03/04 02:40:44;;;;;;;44.65;15.90;;;;;;;6.33;66.69;101961.84;6274331;22;20027;-50
2023/03/04 02:43:11;;;;;;;21.30;5.63;;;;;;;6.19;67.57;101969.78;6275352;22;20510;-53
2023/03/04 02:45:45;;;;;;;17.52;4.78;;;;;;;6.20;67.21;101950.38;6275369;22;20447;-52
2023/03/04 02:48:13;;;;;;;20.40;4.80;;;;;;;6.21;66.80;101962.63;6274954;22;20027;-51
2023/03/04 02:50:44;;;;;;;17.90;4.07;;;;;;;6.06;67.57;101953.88;6269214;22;20019;-51
2023/03/04 02:53:11;;;;;;;22.27;4.17;;;;;;;5.87;68.21;101948.84;6275248;22;20461;-52
2023/03/04 02:55:37;;;;;;;25.50;4.60;;;;;;;5.67;68.63;101952.69;6275640;22;20800;-51
2023/03/04 02:58:05;;;;;;;17.65;3.70;;;;;;;5.71;69.22;101950.72;6277252;22;20019;-49
2023/03/04 03:00:33;;;;;;;17.27;4.72;;;;;;;5.72;69.39;101947.16;6276225;22;20020;-50
2023/03/04 03:03:01;;;;;;;27.08;4.32;;;;;;;5.63;69.13;101945.09;6277242;22;20031;-49
2023/03/04 03:05:31;;;;;;;23.33;5.28;;;;;;;5.53;69.25;101943.00;6269936;22;20346;-50
2023/03/04 03:07:58;;;;;;;18.70;5.15;;;;;;;5.46;69.61;101938.22;6271276;22;20054;-50
2023/03/04 03:10:26;;;;;;;28.90;4.50;;;;;;;5.37;70.29;101944.88;6276395;22;20498;-48
2023/03/04 03:12:55;;;;;;;15.13;3.63;;;;;;;5.39;69.96;101943.81;6277472;22;20015;-50
2023/03/04 03:15:22;;;;;;;26.95;3.92;;;;;;;5.25;70.96;101943.78;6277304;22;20419;-56
2023/03/04 03:17:49;;;;;;;19.23;3.92;;;;;;;5.12;71.66;101941.03;6277538;22;20022;-56
2023/03/04 03:20:17;;;;;;;15.68;3.80;;;;;;;5.14;71.65;101935.69;6257294;22;20024;-56
2023/03/04 03:22:45;;;;;;;26.20;5.45;;;;;;;5.19;71.27;101931.00;6271079;22;20442;-56
2023/03/04 03:25:15;;;;;;;28.35;4.68;;;;;;;5.11;71.44;101934.09;6276755;22;20027;-56
2023/03/04 03:27:42;;;;;;;20.40;4.38;;;;;;;5.16;71.92;101936.44;6277611;22;20039;-56
2023/03/04 03:30:13;;;;;;;17.33;3.83;;;;;;;5.21;71.78;101930.91;6277633;22;20027;-56
2023/03/04 03:32:39;;;;;;;21.42;3.63;;;;;;;5.25;71.91;101930.63;6277505;22;20027;-56
2023/03/04 03:35:06;;;;;;;19.02;4.13;;;;;;;5.08;71.53;101933.44;6275447;22;20020;-56
2023/03/04 03:37:33;;;;;;;17.35;4.93;;;;;;;5.04;71.99;101931.88;6277691;22;20019;-52
2023/03/04 03:40:00;;;;;;;27.70;7.05;;;;;;;5.02;71.79;101923.25;6274633;22;20073;-55
2023/03/04 03:42:27;;;;;;;33.10;11.43;;;;;;;5.23;71.48;101932.50;6277947;22;20016;-52
2023/03/04 03:44:54;;;;;;;30.77;6.70;;;;;;;5.19;71.80;101933.63;6277157;22;20390;-56
2023/03/04 03:47:21;;;;;;;23.88;5.25;;;;;;;5.27;71.36;101931.38;6277333;22;20105;-57
2023/03/04 03:49:48;;;;;;;24.92;6.03;;;;;;;5.27;71.32;101930.53;6258001;22;20207;-56
2023/03/04 03:52:15;;;;;;;24.83;6.88;;;;;;;5.23;71.32;101922.00;6277758;22;20446;-56
2023/03/04 03:54:42;;;;;;;22.10;6.65;;;;;;;5.28;70.91;101916.47;6276848;22;20019;-57
2023/03/04 03:57:09;;;;;;;24.40;6.35;;;;;;;5.37;70.53;101919.38;6277086;22;20027;-57
2023/03/04 03:59:35;;;;;;;22.98;7.15;;;;;;;5.33;70.08;101925.78;6277221;22;20015;-56
2023/03/04 04:02:02;;;;;;;20.65;7.07;;;;;;;5.22;70.49;101922.94;6277277;22;20027;-56
2023/03/04 04:04:29;;;;;;;19.25;5.95;;;;;;;5.24;70.46;101920.19;6278078;22;20016;-57
2023/03/04 04:06:55;;;;;;;23.48;6.20;;;;;;;5.13;71.04;101920.81;6276580;22;20435;-56
2023/03/04 04:09:22;;;;;;;22.75;6.00;;;;;;;5.11;70.88;101920.06;6278043;22;20049;-56
2023/03/04 04:11:50;;;;;;;31.58;8.27;;;;;;;5.07;71.12;101922.03;6277395;22;20091;-57
2023/03/04 04:14:16;;;;;;;25.77;5.95;;;;;;;5.07;71.49;101926.44;6277695;22;20022;-57
2023/03/04 04:16:43;;;;;;;19.35;5.57;;;;;;;5.08;71.51;101917.63;6277129;22;20019;-57
2023/03/04 04:19:16;;;;;;;27.17;6.00;;;;;;;5.05;71.82;101916.00;6277595;22;20030;-57
2023/03/04 04:21:44;;;;;;;19.73;4.55;;;;;;;5.01;71.67;101914.50;6277610;22;20024;-56
2023/03/04 04:24:11;;;;;;;23.60;5.00;;;;;;;5.10;72.36;101916.59;6276458;22;20471;-58
2023/03/04 04:26:38;;;;;;;25.83;4.80;;;;;;;5.22;71.79;101912.41;6277448;22;20028;-57
2023/03/04 04:29:04;;;;;;;18.15;4.15;;;;;;;5.15;72.46;101911.09;6277209;22;20381;-57
2023/03/04 04:31:31;;;;;;;17.88;4.38;;;;;;;5.20;72.05;101909.00;6278010;22;20096;-57
2023/03/04 04:33:58;;;;;;;23.23;4.35;;;;;;;5.19;72.43;101921.31;6277692;22;20020;-57
2023/03/04 04:36:25;;;;;;;22.38;4.93;;;;;;;5.21;72.13;101915.97;6277149;22;20030;-57
2023/03/04 04:38:52;;;;;;;17.58;4.35;;;;;;;5.14;72.58;101914.63;6276839;22;20493;-57
2023/03/04 04:41:22;;;;;;;18.33;3.72;;;;;;;5.29;72.13;101918.16;6277445;22;20443;-57
2023/03/04 04:43:48;;;;;;;14.23;3.75;;;;;;;5.28;72.02;101919.94;6277625;22;20152;-58
2023/03/04 04:46:16;;;;;;;20.25;3.58;;;;;;;5.17;72.31;101919.72;6277612;22;20022;-57
2023/03/04 04:48:43;;;;;;;18.58;4.57;;;;;;;5.29;71.85;101915.50;6276614;22;20022;-57
2023/03/04 04:51:10;;;;;;;18.98;3.88;;;;;;;5.36;71.61;101924.75;6276731;22;20373;-55
2023/03/04 04:53:37;;;;;;;16.98;3.60;;;;;;;5.29;72.02;101920.78;6277488;22;20496;-55
2023/03/04 04:56:08;;;;;;;17.77;3.67;;;;;;;5.04;72.64;101922.22;6277407;22;20385;-55
2023/03/04 04:58:35;;;;;;;;;;;;;;;4.92;73.01;101923.78;6277293;22;20069;-55
2023/03/04 05:01:03;;;;;;;19.40;3.53;;;;;;;4.92;73.86;101925.56;6276227;22;20273;-55
2023/03/04 05:03:32;;;;;;;17.80;3.47;;;;;;;4.86;74.34;101923.28;6277362;22;20398;-56
2023/03/04 05:05:58;;;;;;;16.27;3.40;;;;;;;5.05;73.52;101923.91;6276593;22;20099;-56
2023/03/04 05:08:26;;;;;;;21.38;3.40;;;;;;;5.08;73.62;101920.28;6276999;22;20343;-56
2023/03/04 05:10:53;;;;;;;16.77;3.42;;;;;;;4.91;74.33;101923.84;6250265;22;20019;-56
2023/03/04 05:13:20;;;;;;;15.18;3.55;;;;;;;5.01;73.88;101919.78;6276706;22;20019;-56
2023/03/04 05:15:49;;;;;;;22.40;3.78;;;;;;;5.08;73.49;101922.91;6276998;22;20335;-56
2023/03/04 05:18:16;;;;;;;16.88;3.83;;;;;;;5.06;73.55;101928.25;6276369;22;20030;-55
2023/03/04 05:20:42;;;;;;;19.88;3.83;;;;;;;5.02;74.22;101932.00;6276695;22;20441;-55
2023/03/04 05:23:09;;;;;;;18.52;3.60;;;;;;;4.94;74.21;101924.53;6277156;22;20019;-56
2023/03/04 05:25:36;;;;;;;17.83;4.10;;;;;;;4.93;74.40;101922.84;6276883;22;20335;-55
2023/03/04 05:28:03;;;;;;;19.95;3.70;;;;;;;5.02;74.09;101920.59;6249945;22;20026;-55
2023/03/04 05:30:30;;;;;;;13.43;3.50;;;;;;;4.94;74.03;101926.31;6272522;22;20089;-56
2023/03/04 05:32:57;;;;;;;23.73;4.00;;;;;;;4.88;74.69;101924.06;6276117;22;20020;-55
2023/03/04 05:35:23;;;;;;;20.42;4.18;;;;;;;4.85;74.52;101924.22;6249936;22;20015;-56
2023/03/04 05:37:51;;;;;;;18.05;3.80;;;;;;;4.82;74.20;101925.25;6276479;22;20023;-56
2023/03/04 05:40:18;;;;;;;20.85;4.35;;;;;;;4.76;75.02;101930.84;6250030;22;20019;-56
2023/03/04 05:42:45;;;;;;;17.48;3.88;;;;;;;4.90;74.38;101924.81;6277157;22;20023;-56
2023/03/04 05:45:11;;;;;;;19.80;3.75;;;;;;;4.79;73.83;101928.06;6276304;22;20437;-56
2023/03/04 05:47:38;;;;;;;18.33;4.22;;;;;;;4.83;74.12;101931.34;6276761;22;20019;-55
2023/03/04 05:50:05;;;;;;;12.27;3.58;;;;;;;4.93;74.22;101935.13;6276972;22;20020;-55
2023/03/04 05:52:32;;;;;;;16.88;3.50;;;;;;;4.91;74.31;101929.13;6276186;22;20497;-56
2023/03/04 05:54:58;;;;;;;20.85;3.40;;;;;;;5.04;73.84;101934.50;6276667;22;20022;-56
2023/03/04 05:57:25;;;;;;;18.45;3.08;;;;;;;5.00;74.23;101932.09;6276070;22;20485;-57
2023/03/04 05:59:53;;;;;;;18.40;3.20;;;;;;;5.17;74.17;101938.97;6249734;22;20078;-55
2023/03/04 06:02:19;;;;;;;16.60;3.00;;;;;;;5.16;74.30;101936.44;6276428;22;20027;-55
2023/03/04 06:04:46;;;;;;;13.68;2.83;;;;;;;5.11;74.50;101935.84;6201853;22;20054;-54
2023/03/04 06:07:13;;;;;;;13.45;2.95;;;;;;;5.11;74.81;101936.72;6249131;22;20020;-55
2023/03/04 06:09:40;;;;;;;14.90;3.00;;;;;;;5.04;74.75;101935.38;6277000;22;20023;-55
2023/03/04 06:12:07;;;;;;;15.15;2.83;;;;;;;5.00;74.74;101942.59;6223678;22;20510;-55
2023/03/04 06:14:34;;;;;;;15.35;3.40;;;;;;;4.92;75.30;101936.09;6277036;22;20030;-55
2023/03/04 06:17:01;;;;;;;21.05;3.22;;;;;;;4.90;75.08;101935.31;6276219;22;20382;-55
2023/03/04 06:19:28;;;;;;;17.25;3.30;;;;;;;5.06;74.88;101948.41;6276742;22;20073;-54
2023/03/04 06:21:54;;;;;;;14.82;3.20;;;;;;;5.21;74.70;101942.28;6276207;22;20342;-55
2023/03/04 06:24:21;;;;;;;21.02;3.25;;;;;;;5.09;74.73;101948.25;6276858;22;20019;-54
2023/03/04 06:26:48;;;;;;;9.57;3.10;;;;;;;5.05;74.67;101946.75;6276334;22;20016;-54
2023/03/04 06:29:14;;;;;;;14.65;2.90;;;;;;;5.12;74.56;101948.09;6275604;22;20015;-53
2023/03/04 06:31:41;;;;;;;11.98;2.50;;;;;;;5.06;74.58;101951.06;6276750;22;20343;-54
2023/03/04 06:34:08;;;;;;;12.95;3.20;;;;;;;5.08;74.50;101954.47;6276708;22;20074;-56
2023/03/04 06:36:35;;;;;;;14.70;2.83;;;;;;;4.99;74.94;101953.22;6249686;22;20020;-52
2023/03/04 06:39:04;;;;;;;137.77;56.00;;;;;;;4.89;75.36;101952.03;6276147;22;20019;-56
2023/03/04 06:41:31;;;;;;;106.35;50.45;;;;;;;4.94;75.22;101960.50;6276217;22;20030;-56
2023/03/04 06:43:58;;;;;;;17.17;5.03;;;;;;;4.98;74.93;101957.63;6276259;22;20092;-53
2023/03/04 06:46:24;;;;;;;21.52;3.38;;;;;;;5.06;74.80;101959.81;6276594;22;20062;-52
2023/03/04 06:48:51;;;;;;;13.50;3.10;;;;;;;5.21;74.09;101971.22;6276632;22;20019;-52
2023/03/04 06:51:19;;;;;;;13.82;3.28;;;;;;;5.13;74.24;101970.81;6275954;22;20114;-53
2023/03/04 06:53:45;;;;;;;13.07;3.05;;;;;;;5.09;74.35;101964.88;6275970;22;20019;-53
2023/03/04 06:56:15;;;;;;;13.85;3.00;;;;;;;5.17;73.78;101975.81;6275998;22;20024;-53
2023/03/04 06:58:43;;;;;;;15.10;2.90;;;;;;;5.11;73.83;101970.91;6276135;22;20028;-53
2023/03/04 07:01:16;;;;;;;11.00;3.15;;;;;;;5.10;74.23;101978.91;6275536;22;20026;-54
2023/03/04 07:03:44;;;;;;;13.05;3.05;;;;;;;4.97;73.86;101969.06;6249242;22;20024;-53
2023/03/04 07:06:12;;;;;;;18.17;2.90;;;;;;;4.97;74.31;101968.22;6273468;22;20051;-53
2023/03/04 07:08:39;;;;;;;27.05;2.90;;;;;;;4.97;74.23;101969.06;6276194;22;20023;-53
2023/03/04 07:11:06;;;;;;;16.38;3.42;;;;;;;4.97;74.61;101966.44;6275545;22;20020;-53
2023/03/04 07:13:36;;;;;;;17.10;2.63;;;;;;;5.14;73.48;101972.50;6276550;22;20023;-54
2023/03/04 07:16:07;;;;;;;12.05;2.42;;;;;;;5.18;73.38;101972.25;6276585;22;20039;-53
2023/03/04 07:18:34;;;;;;;15.63;2.58;;;;;;;5.13;73.87;101976.06;6275757;22;20347;-53
2023/03/04 07:21:00;;;;;;;13.57;2.47;;;;;;;5.12;74.42;101983.13;6275934;22;20074;-53
2023/03/04 07:23:27;;;;;;;11.75;2.85;;;;;;;5.12;74.01;101985.75;6276510;22;20026;-54
2023/03/04 07:25:54;;;;;;;14.43;2.70;;;;;;;4.99;75.19;101977.72;6275722;22;20016;-53
2023/03/04 07:28:21;;;;;;;19.60;2.97;;;;;;;5.08;75.23;101984.25;6276175;22;20024;-52
2023/03/04 07:30:47;;;;;;;10.80;2.78;;;;;;;5.11;75.08;101983.19;6266188;22;20505;-53
2023/03/04 07:33:14;;;;;;;17.73;3.08;;;;;;;5.16;75.01;101984.63;6275773;22;20019;-53
2023/03/04 07:35:41;;;;;;;11.90;2.53;;;;;;;5.26;74.69;101992.84;6274458;22;20423;-55
2023/03/04 07:38:08;;;;;;;18.52;3.03;;;;;;;5.28;74.79;101990.13;6275731;22;20421;-55
2023/03/04 07:40:35;;;;;;;13.57;3.20;;;;;;;5.18;75.36;101995.06;6249209;22;20027;-54
2023/03/04 07:43:03;;;;;;;10.90;2.78;;;;;;;5.11;75.78;101988.47;6277927;22;20026;-54
2023/03/04 07:45:29;;;;;;;14.40;3.30;;;;;;;5.17;75.65;101988.97;6277630;22;20019;-54
2023/03/04 07:47:57;;;;;;;15.30;2.78;;;;;;;5.08;76.95;101996.56;6277482;22;20062;-56
2023/03/04 07:50:24;;;;;;;18.48;3.13;;;;;;;5.16;76.27;101995.16;6276954;22;20431;-57
2023/03/04 07:52:51;;;;;;;14.57;2.80;;;;;;;5.24;76.72;101991.22;6276740;22;20015;-57
2023/03/04 07:55:18;;;;;;;23.40;3.35;;;;;;;5.20;76.81;102001.09;6277571;22;20045;-57
2023/03/04 07:57:46;;;;;;;11.50;2.45;;;;;;;5.19;77.39;101997.63;6277633;22;20026;-57
2023/03/04 08:00:15;;;;;;;12.20;2.72;;;;;;;5.29;77.51;101997.91;6250093;22;20016;-57
2023/03/04 08:02:42;;;;;;;10.80;2.67;;;;;;;5.28;77.21;101998.88;6276728;22;20023;-57
2023/03/04 08:05:09;;;;;;;14.73;2.97;;;;;;;5.28;77.55;102003.28;6277486;22;20024;-57
2023/03/04 08:07:35;;;;;;;14.35;2.63;;;;;;;5.25;78.18;102009.56;6249796;22;20147;-57
2023/03/04 08:10:03;;;;;;;17.15;2.92;;;;;;;5.25;77.75;102001.66;6250522;22;20347;-57
2023/03/04 08:12:30;;;;;;;14.88;2.78;;;;;;;5.15;78.15;102000.53;6250980;22;20027;-57
2023/03/04 08:14:56;;;;;;;17.05;3.10;;;;;;;5.13;78.67;102000.59;6277765;22;20034;-58
2023/03/04 08:17:23;;;;;;;6.97;2.13;;;;;;;5.22;78.27;102008.91;6276987;22;20030;-58
2023/03/04 08:19:50;;;;;;;20.38;2.60;;;;;;;5.07;79.21;102005.38;6277223;22;20027;-57
2023/03/04 08:22:17;;;;;;;12.02;2.60;;;;;;;5.18;79.60;102003.84;6276745;22;20016;-57
2023/03/04 08:24:43;;;;;;;11.68;2.97;;;;;;;5.20;80.17;101990.56;6277911;22;20102;-57
2023/03/04 08:27:10;;;;;;;12.90;2.63;;;;;;;5.26;79.93;101998.13;6277715;22;20045;-54
2023/03/04 08:29:37;;;;;;;12.60;2.40;;;;;;;5.45;79.52;101999.69;6276845;22;20024;-55
2023/03/04 08:32:04;;;;;;;12.90;2.38;;;;;;;5.49;79.58;101999.38;6277827;22;20020;-54
2023/03/04 08:34:31;;;;;;;11.75;2.60;;;;;;;5.66;79.47;102002.84;6277157;22;20021;-56
2023/03/04 08:36:57;;;;;;;9.05;2.25;;;;;;;5.66;79.64;102003.69;6275907;22;20443;-56
2023/03/04 08:39:24;;;;;;;9.40;2.38;;;;;;;5.68;79.53;102000.97;6276610;22;20020;-52
2023/03/04 08:41:51;;;;;;;15.88;2.70;;;;;;;5.67;79.78;102004.50;6276684;22;20069;-51
2023/03/04 08:44:18;;;;;;;10.30;2.38;;;;;;;5.76;79.47;102003.97;6277085;22;20095;-50
2023/03/04 08:46:44;;;;;;;12.75;2.85;;;;;;;5.94;78.61;102004.66;6276687;22;20126;-53
2023/03/04 08:49:11;;;;;;;10.68;2.38;;;;;;;5.77;79.55;102003.88;6276903;22;20032;-50
2023/03/04 08:51:38;;;;;;;9.10;2.25;;;;;;;5.78;81.23;102004.72;6276679;22;20043;-51
2023/03/04 08:54:05;;;;;;;8.88;2.63;;;;;;;5.75;80.52;102003.13;6276941;22;20094;-52
2023/03/04 08:56:33;;;;;;;11.50;2.53;;;;;;;5.60;80.91;101990.03;6276886;22;20331;-51
2023/03/04 08:59:00;;;;;;;11.90;2.60;;;;;;;5.68;79.84;101998.31;6276614;22;20029;-50
2023/03/04 09:01:26;;;;;;;9.85;2.30;;;;;;;5.59;79.52;102002.34;6275941;22;20342;-52
2023/03/04 09:03:53;;;;;;;14.35;2.85;;;;;;;5.69;79.07;102000.84;6276597;22;20039;-52
2023/03/04 09:06:20;;;;;;;14.23;2.53;;;;;;;5.77;78.95;102005.66;6276365;22;20019;-52
2023/03/04 09:08:47;;;;;;;16.08;4.18;;;;;;;5.94;78.03;101999.38;6264547;22;20074;-49
2023/03/04 09:11:14;;;;;;;14.77;2.65;;;;;;;5.96;78.14;102003.63;6269129;22;20046;-50
2023/03/04 09:13:41;;;;;;;11.98;2.97;;;;;;;6.04;77.27;102003.19;6275827;22;20020;-51
2023/03/04 09:16:10;;;;;;;10.57;2.53;;;;;;;6.02;77.60;102001.56;6275081;22;20061;-49
2023/03/04 09:18:38;;;;;;;11.18;2.20;;;;;;;6.03;77.10;102006.75;6275468;22;20447;-50
2023/03/04 09:21:07;;;;;;;13.95;2.90;;;;;;;5.92;76.93;102007.38;6275945;22;20073;-50
2023/03/04 09:23:34;;;;;;;12.10;2.55;;;;;;;6.01;76.91;102005.16;6249959;22;20020;-50
2023/03/04 09:26:01;;;;;;;11.45;3.90;;;;;;;6.05;77.79;102004.88;6265204;22;20050;-53
2023/03/04 09:28:28;;;;;;;11.13;3.58;;;;;;;5.85;78.57;102005.19;6275575;22;20103;-56
2023/03/04 09:30:54;;;;;;;11.40;3.50;;;;;;;5.98;79.90;102005.34;6236503;22;20084;-53
2023/03/04 09:33:21;;;;;;;11.90;2.45;;;;;;;5.90;80.23;102003.16;6276402;22;20125;-53
2023/03/04 09:35:48;;;;;;;9.65;2.53;;;;;;;6.03;78.48;102009.38;6263403;22;20015;-53
2023/03/04 09:38:15;;;;;;;9.65;2.20;;;;;;;6.11;79.67;102006.28;6275222;22;20071;-53
2023/03/04 09:40:45;;;;;;;11.40;2.65;;;;;;;6.04;78.80;102000.56;6263980;22;20023;-50
2023/03/04 09:43:23;;;;;;;7.78;2.28;;;;;;;6.11;78.45;102004.50;6276172;22;20438;-51
2023/03/04 09:45:54;;;;;;;12.02;2.88;;;;;;;6.28;78.87;102005.25;6262543;22;20023;-50
2023/03/04 09:48:24;;;;;;;6.78;2.00;;;;;;;6.32;79.08;101999.69;6275600;22;20023;-50
2023/03/04 09:51:07;;;;;;;11.05;4.15;;;;;;;6.25;79.62;102005.44;6263955;22;20465;-53
2023/03/04 09:53:42;;;;;;;14.23;4.78;;;;;;;6.28;78.60;102002.63;6274227;22;20023;-51
2023/03/04 09:56:10;;;;;;;10.88;2.10;;;;;;;6.31;77.73;101995.38;6263789;22;20431;-54
2023/03/04 10:01:42;;;;;;;8.35;2.05;;;;;;;6.41;77.91;101989.53;5087106;27;20823;-53
2023/03/04 10:04:15;;;;;;;10.35;2.55;;;;;;;6.54;78.70;101995.69;5094760;28;20048;-56
2023/03/04 10:06:48;;;;;;;10.65;2.80;;;;;;;6.58;78.11;101989.28;5063356;28;20040;-56
2023/03/04 10:09:23;;;;;;;14.05;2.42;;;;;;;6.61;78.77;101991.72;5089737;28;20043;-58
2023/03/04 10:12:03;;;;;;;8.23;2.20;;;;;;;6.53;78.17;101984.31;5056876;28;20044;-58
2023/03/04 10:14:51;;;;;;;14.40;2.42;;;;;;;6.61;77.68;101989.09;5089252;28;20068;-58
2023/03/04 10:17:27;;;;;;;17.95;2.72;;;;;;;6.63;78.17;101974.03;5066336;28;20051;-57
2023/03/04 10:20:00;;;;;;;14.07;2.83;;;;;;;6.48;78.99;101982.91;5101113;28;20049;-57
2023/03/04 10:22:40;;;;;;;9.80;2.78;;;;;;;6.45;78.52;101983.09;5067907;28;20101;-57
2023/03/04 10:25:26;;;;;;;8.55;2.28;;;;;;;6.51;79.19;101978.31;5087088;28;20076;-57
2023/03/04 10:27:57;;;;;;;10.82;2.38;;;;;;;6.81;77.80;101973.78;5078188;28;20040;-58
2023/03/04 10:31:01;;;;;;;8.75;2.45;;;;;;;7.31;75.88;101982.78;5045203;28;20048;-58
2023/03/04 10:33:30;;;;;;;12.52;2.60;;;;;;;8.91;69.53;101976.09;5088038;28;20043;-56
2023/03/04 10:36:32;;;;;;;9.57;2.22;;;;;;;8.21;69.94;101970.44;5068031;28;20051;-58
2023/03/04 10:39:08;;;;;;;11.95;4.00;;;;;;;7.80;72.57;101984.75;5080833;28;20049;-58
2023/03/04 10:41:35;;;;;;;15.68;4.43;;;;;;;7.53;72.94;101974.31;5070583;28;20093;-57
2023/03/04 10:44:15;;;;;;;13.23;2.58;;;;;;;7.47;71.97;101969.41;5079852;28;20442;-58
2023/03/04 10:46:45;;;;;;;7.20;2.10;;;;;;;7.17;73.55;101967.91;5071105;28;20566;-58
2023/03/04 10:49:14;;;;;;;10.77;2.13;;;;;;;7.04;73.65;101967.88;5089521;28;21169;-58
2023/03/04 10:51:45;;;;;;;12.32;2.25;;;;;;;7.13;73.61;101969.06;5072969;28;20044;-58
2023/03/04 10:54:39;;;;;;;9.65;2.30;;;;;;;6.96;74.17;101961.38;5087735;28;20048;-58
2023/03/04 10:57:17;;;;;;;8.85;2.25;;;;;;;7.16;74.00;101965.34;5061635;28;20040;-58
2023/03/04 10:59:52;;;;;;;12.75;2.70;;;;;;;7.07;74.06;101957.09;5085699;28;20040;-58
2023/03/04 11:02:35;;;;;;;9.32;2.15;;;;;;;6.99;74.35;101956.75;5059691;28;20056;-57
2023/03/04 11:05:19;;;;;;;10.65;2.10;;;;;;;6.74;75.38;101957.50;5065383;28;20051;-57
2023/03/04 11:07:55;;;;;;;11.95;3.03;;;;;;;6.76;76.91;101957.41;5050748;28;20045;-57
2023/03/04 11:10:39;;;;;;;10.48;3.42;;;;;;;6.82;75.72;101952.59;5030059;28;20087;-58
2023/03/04 11:13:16;;;;;;;11.30;2.60;;;;;;;6.71;76.90;101953.28;5025406;28;20041;-58
2023/03/04 11:18:40;;;;;;;7.63;2.10;;;;;;;7.05;75.57;101947.59;5091979;27;20428;-57
2023/03/04 11:21:14;;;;;;;7.30;2.15;;;;;;;7.37;73.78;101949.84;5111208;28;20108;-57
2023/03/04 11:23:48;;;;;;;11.13;2.50;;;;;;;7.73;72.30;101951.81;5076358;28;24443;-57
2023/03/04 11:26:20;;;;;;;12.57;2.88;;;;;;;8.16;71.14;101942.66;5093289;27;20047;-57
2023/03/04 11:28:52;;;;;;;13.93;2.72;;;;;;;7.95;71.05;101940.59;5102625;27;20949;-57
2023/03/04 11:31:26;;;;;;;15.82;2.70;;;;;;;8.35;69.44;101940.41;5091774;28;20471;-57
2023/03/04 11:34:00;;;;;;;7.22;2.50;;;;;;;8.19;69.40;101927.44;5096150;28;20115;-58
2023/03/04 11:36:49;;;;;;;12.13;3.50;;;;;;;7.76;71.11;101940.16;5092060;28;20024;-55
2023/03/04 11:39:23;;;;;;;15.68;2.72;;;;;;;7.60;72.12;101935.09;5107992;28;20056;-56
2023/03/04 11:41:59;;;;;;;10.30;2.83;;;;;;;7.47;72.63;101935.09;5091657;28;20059;-56
2023/03/04 11:44:26;;;;;;;11.45;2.47;;;;;;;7.41;73.80;101935.53;5103911;28;20051;-57
2023/03/04 11:47:16;;;;;;;10.57;2.63;;;;;;;7.41;73.29;101931.06;5086732;28;20063;-57
2023/03/04 11:53:14;;;;;;;9.65;2.67;;;;;;;7.41;74.03;101919.69;5094433;27;20198;-56
2023/03/04 11:56:00;;;;;;;10.30;2.97;;;;;;;7.58;73.13;101918.50;5083398;28;20115;-56
2023/03/04 11:58:57;;;;;;;11.52;2.70;;;;;;;7.69;73.73;101913.31;5063429;28;20401;-55
2023/03/04 12:01:40;;;;;;;15.23;2.50;;;;;;;7.68;72.79;101911.66;5085449;28;20044;-56
2023/03/04 12:04:34;;;;;;;17.70;2.70;;;;;;;7.93;71.97;101894.06;5081433;28;20055;-57
2023/03/04 12:07:42;;;;;;;12.82;2.55;;;;;;;7.99;70.95;101898.94;5072056;28;20048;-58
2023/03/04 12:10:40;;;;;;;11.48;2.30;;;;;;;8.13;71.40;101895.28;5080902;28;20049;-58
2023/03/04 12:13:47;;;;;;;9.68;2.20;;;;;;;7.92;71.23;101889.75;5056982;28;20051;-55
2023/03/04 12:16:45;;;;;;;12.85;2.55;;;;;;;7.33;73.83;101888.53;5073231;28;20055;-55
2023/03/04 12:19:52;;;;;;;17.92;3.00;;;;;;;7.11;74.97;101887.34;5086871;28;20095;-54
2023/03/04 12:22:49;;;;;;;15.77;2.97;;;;;;;7.33;75.07;101882.38;5086245;28;20131;-55
2023/03/04 12:25:38;;;;;;;9.27;2.55;;;;;;;7.53;73.82;101886.28;5092024;28;20046;-55
2023/03/04 12:28:50;;;;;;;7.25;2.30;;;;;;;7.67;73.68;101876.44;5079107;28;20040;-54
2023/03/04 12:31:34;;;;;;;;;;;;;;;7.98;72.48;101870.81;5086195;28;20499;-56
2023/03/04 12:34:38;;;;;;;8.90;2.25;;;;;;;7.88;72.80;101868.81;5088033;28;19966;-56
2023/03/04 12:37:30;;;;;;;12.68;2.78;;;;;;;7.87;73.92;101864.47;5085426;28;20048;-55
2023/03/04 12:43:25;;;;;;;10.98;2.50;;;;;;;8.05;72.99;101848.28;5112064;27;20746;-54
2023/03/04 12:46:23;;;;;;;11.98;2.60;;;;;;;8.08;72.66;101840.97;5100699;28;20564;-53
2023/03/04 12:49:22;;;;;;;5.85;2.47;;;;;;;8.20;71.81;101841.03;5075654;28;20051;-54
2023/03/04 12:52:16;;;;;;;7.88;2.40;;;;;;;7.91;72.81;101843.13;5091704;28;20115;-54
2023/03/04 12:54:49;;;;;;;11.15;2.30;;;;;;;7.82;72.73;101837.56;5099178;28;20055;-54
2023/03/04 12:57:20;;;;;;;10.90;2.30;;;;;;;7.72;73.17;101844.44;5073956;28;20119;-54
2023/03/04 13:00:15;;;;;;;11.57;2.40;;;;;;;7.60;74.97;101840.03;5086912;28;20044;-54
2023/03/04 13:03:02;;;;;;;15.65;2.50;;;;;;;7.55;74.74;101845.66;5085679;28;20480;-53